Time;durP1;ratioP1;P1;durP2;ratioP2;P2;SDS_P1;SDS_P2;PMS_P1;PMS_P2;Temp;Humidity;BMP_temperature;BMP_pressure;BME280_temperature;BME280_humidity;BME280_pressure;Samples;Min_cycle;Max_cycle;Signal;HPM_P1;HPM_P2
2021/06/15 00:00:34;;;;;;;4.70;4.20;;;18.90;99.90;;;;;;5017824;28;20445;-57
2021/06/15 00:03:01;;;;;;;4.40;3.87;;;18.90;99.90;;;;;;5033094;28;20534;-56
2021/06/15 00:05:28;;;;;;;4.73;4.27;;;18.90;99.90;;;;;;5033576;28;20457;-56
2021/06/15 00:07:55;;;;;;;5.87;4.50;;;18.80;99.90;;;;;;5032886;28;20495;-56
2021/06/15 00:10:26;;;;;;;6.30;4.97;;;18.80;99.90;;;;;;5031130;28;20555;-56
2021/06/15 00:12:55;;;;;;;5.37;4.67;;;18.70;99.90;;;;;;5032425;28;20997;-56
2021/06/15 00:15:23;;;;;;;6.50;4.53;;;18.70;99.90;;;;;;5033565;28;20452;-55
2021/06/15 00:17:51;;;;;;;4.80;4.40;;;18.60;99.90;;;;;;5034338;28;20559;-55
2021/06/15 00:20:19;;;;;;;4.90;4.10;;;18.50;99.90;;;;;;5015401;28;20442;-56
2021/06/15 00:22:47;;;;;;;5.80;4.07;;;18.50;99.90;;;;;;5033098;28;20471;-56
2021/06/15 00:25:15;;;;;;;6.90;4.50;;;18.60;99.90;;;;;;5018749;28;20508;-55
2021/06/15 00:27:44;;;;;;;4.30;3.90;;;18.50;99.90;;;;;;5028412;28;20449;-57
2021/06/15 00:30:14;;;;;;;5.23;4.07;;;18.50;99.90;;;;;;5027946;28;20831;-56
2021/06/15 00:32:41;;;;;;;8.10;4.43;;;18.50;99.90;;;;;;5028625;28;20530;-55
2021/06/15 00:35:09;;;;;;;5.53;3.57;;;18.40;99.90;;;;;;5019592;28;20468;-56
2021/06/15 00:37:36;;;;;;;4.17;3.73;;;18.30;99.90;;;;;;5032583;28;20498;-55
2021/06/15 00:40:04;;;;;;;4.13;3.73;;;18.40;99.90;;;;;;5032453;28;20510;-57
2021/06/15 00:42:31;;;;;;;4.17;3.77;;;18.30;99.90;;;;;;5031177;28;20539;-56
2021/06/15 00:44:59;;;;;;;4.80;3.90;;;18.20;99.90;;;;;;5014523;28;20504;-55
2021/06/15 00:47:26;;;;;;;4.40;4.00;;;18.20;99.90;;;;;;5019793;28;20445;-56
2021/06/15 00:49:55;;;;;;;5.10;3.77;;;18.20;99.90;;;;;;5032817;28;20480;-57
2021/06/15 00:52:22;;;;;;;4.20;3.80;;;18.20;99.90;;;;;;5031858;28;20449;-55
2021/06/15 00:54:49;;;;;;;4.17;3.50;;;18.30;99.90;;;;;;5033332;28;20519;-56
2021/06/15 00:57:17;;;;;;;5.83;3.80;;;18.30;99.90;;;;;;5032507;28;20539;-55
2021/06/15 00:59:45;;;;;;;4.13;3.63;;;18.30;99.90;;;;;;5030406;28;20511;-55
2021/06/15 01:02:13;;;;;;;6.27;3.77;;;18.20;99.90;;;;;;5032584;28;20471;-56
2021/06/15 01:04:40;;;;;;;4.30;3.90;;;18.20;99.90;;;;;;5032304;28;21384;-56
2021/06/15 01:07:13;;;;;;;4.47;3.90;;;18.20;99.90;;;;;;5032290;28;20456;-56
2021/06/15 01:09:45;;;;;;;4.40;3.90;;;18.20;99.90;;;;;;5032643;28;20554;-56
2021/06/15 01:12:26;;;;;;;4.67;3.57;;;18.10;99.90;;;;;;5025665;28;20454;-57
2021/06/15 01:15:04;;;;;;;4.60;3.83;;;18.10;99.90;;;;;;5013915;28;20503;-55
2021/06/15 01:17:38;;;;;;;4.53;4.03;;;18.10;99.90;;;;;;5012979;28;20503;-56
2021/06/15 01:20:12;;;;;;;3.77;3.47;;;18.10;99.90;;;;;;5013116;28;20875;-56
2021/06/15 01:23:10;;;;;;;4.87;3.43;;;18.10;99.90;;;;;;5032020;28;20472;-56
2021/06/15 01:26:30;;;;;;;5.63;4.10;;;18.10;99.90;;;;;;5026701;28;20543;-55
2021/06/15 01:29:00;;;;;;;7.00;3.90;;;18.00;99.90;;;;;;5019299;28;20883;-55
2021/06/15 01:31:34;;;;;;;5.10;4.03;;;18.00;99.90;;;;;;5025408;28;20857;-55
2021/06/15 01:34:04;;;;;;;5.13;4.17;;;17.90;99.90;;;;;;5032365;28;20974;-56
2021/06/15 01:36:38;;;;;;;4.57;4.10;;;17.90;99.90;;;;;;5030610;28;20506;-55
2021/06/15 01:39:09;;;;;;;4.03;3.73;;;17.80;99.90;;;;;;5012748;28;20512;-55
2021/06/15 01:41:42;;;;;;;4.80;4.40;;;17.80;99.90;;;;;;5012378;28;20450;-54
2021/06/15 01:44:12;;;;;;;5.47;3.93;;;17.80;99.90;;;;;;5024993;28;20468;-55
2021/06/15 01:46:45;;;;;;;4.00;3.60;;;17.80;99.90;;;;;;5031695;28;20890;-57
2021/06/15 01:49:19;;;;;;;4.27;3.87;;;17.80;99.90;;;;;;5032101;28;20449;-55
2021/06/15 01:51:49;;;;;;;4.23;3.80;;;17.80;99.90;;;;;;5031858;28;20454;-56
2021/06/15 01:54:22;;;;;;;4.30;4.00;;;17.80;99.90;;;;;;5031933;28;21056;-56
2021/06/15 01:56:51;;;;;;;4.40;3.87;;;17.70;99.90;;;;;;5031560;28;20456;-57
2021/06/15 01:59:22;;;;;;;4.30;3.90;;;17.80;99.90;;;;;;5019469;28;20461;-56
2021/06/15 02:01:54;;;;;;;5.03;4.17;;;17.70;99.90;;;;;;5012055;28;20453;-57
2021/06/15 02:04:24;;;;;;;4.47;4.07;;;17.60;99.90;;;;;;5049527;22;20496;-51
2021/06/15 02:06:52;;;;;;;6.10;4.47;;;17.60;99.90;;;;;;5031808;28;20448;-50
2021/06/15 02:09:22;;;;;;;6.47;4.87;;;17.60;99.90;;;;;;5031661;28;20452;-51
2021/06/15 02:11:49;;;;;;;6.67;4.37;;;17.60;99.90;;;;;;5030946;28;20453;-51
2021/06/15 02:14:23;;;;;;;9.13;4.83;;;17.60;99.90;;;;;;5017916;28;20552;-51
2021/06/15 02:16:54;;;;;;;6.87;4.60;;;17.50;99.90;;;;;;5012097;28;20441;-51
2021/06/15 02:19:23;;;;;;;5.23;4.50;;;17.40;99.90;;;;;;5011826;28;20800;-50
2021/06/15 02:21:53;;;;;;;5.60;3.87;;;17.40;99.90;;;;;;5011674;28;20449;-50
2021/06/15 02:24:23;;;;;;;5.70;4.43;;;17.40;99.90;;;;;;5012199;28;20465;-51
2021/06/15 02:26:51;;;;;;;13.50;5.27;;;17.30;99.90;;;;;;5031199;28;20445;-51
2021/06/15 02:29:19;;;;;;;8.30;4.67;;;17.30;99.90;;;;;;5031647;28;20456;-51
2021/06/15 02:31:51;;;;;;;6.33;4.67;;;17.30;99.90;;;;;;5024740;28;20449;-51
2021/06/15 02:34:21;;;;;;;6.50;5.03;;;17.30;99.90;;;;;;5011931;28;20469;-51
2021/06/15 02:36:51;;;;;;;5.17;4.60;;;17.20;99.90;;;;;;5011952;28;20543;-51
2021/06/15 02:39:23;;;;;;;5.40;4.20;;;17.30;99.90;;;;;;5026701;28;20540;-50
2021/06/15 02:41:54;;;;;;;5.13;4.50;;;17.30;99.90;;;;;;5029511;28;20460;-51
2021/06/15 02:44:28;;;;;;;7.40;5.20;;;17.30;99.90;;;;;;5031333;28;20476;-51
2021/06/15 02:46:57;;;;;;;5.57;4.60;;;17.30;99.90;;;;;;5029913;28;20456;-52
2021/06/15 02:49:29;;;;;;;5.57;5.07;;;17.30;99.90;;;;;;5031349;28;20586;-51
2021/06/15 02:52:05;;;;;;;6.60;4.60;;;17.30;99.90;;;;;;5026624;28;20556;-51
2021/06/15 02:54:37;;;;;;;4.93;4.40;;;17.20;99.90;;;;;;5020478;28;20472;-51
2021/06/15 02:57:05;;;;;;;6.33;4.83;;;17.20;99.90;;;;;;5016501;28;20453;-51
2021/06/15 02:59:33;;;;;;;5.23;4.73;;;17.20;99.90;;;;;;5015430;28;20477;-51
2021/06/15 03:02:00;;;;;;;7.30;4.50;;;17.20;99.90;;;;;;5026083;28;20449;-50
2021/06/15 03:04:27;;;;;;;4.97;4.40;;;17.20;99.90;;;;;;5028359;28;20477;-51
2021/06/15 03:06:54;;;;;;;5.00;4.60;;;17.20;99.90;;;;;;5033155;28;20449;-51
2021/06/15 03:09:22;;;;;;;5.03;4.53;;;17.10;99.90;;;;;;5031447;28;20453;-51
2021/06/15 03:11:55;;;;;;;5.73;4.43;;;17.10;99.90;;;;;;5016043;28;20484;-51
2021/06/15 03:14:26;;;;;;;6.80;4.60;;;17.10;99.90;;;;;;5026262;28;20890;-51
2021/06/15 03:17:01;;;;;;;6.20;4.10;;;17.00;99.90;;;;;;5015193;28;20943;-51
2021/06/15 03:19:35;;;;;;;7.03;4.63;;;17.00;99.90;;;;;;5026470;28;20441;-51
2021/06/15 03:22:06;;;;;;;5.07;4.60;;;17.00;99.90;;;;;;5034710;28;20456;-51
2021/06/15 03:24:36;;;;;;;5.40;4.90;;;16.90;99.90;;;;;;5029840;28;20496;-50
2021/06/15 03:27:07;;;;;;;6.77;4.63;;;16.80;99.90;;;;;;5026044;28;20480;-51
2021/06/15 03:29:37;;;;;;;7.03;4.87;;;16.80;99.90;;;;;;5014903;28;20449;-51
2021/06/15 03:32:09;;;;;;;5.77;4.90;;;16.80;99.90;;;;;;5024485;28;20491;-51
2021/06/15 03:34:43;;;;;;;5.33;4.20;;;16.80;99.90;;;;;;5025849;28;20478;-52
2021/06/15 03:37:13;;;;;;;6.17;4.80;;;16.90;99.90;;;;;;5033740;28;20448;-51
2021/06/15 03:39:43;;;;;;;5.30;4.73;;;16.90;99.90;;;;;;5024656;28;21018;-51
2021/06/15 03:42:11;;;;;;;5.43;4.87;;;16.80;99.90;;;;;;5029754;28;21023;-51
2021/06/15 03:44:38;;;;;;;5.67;4.70;;;16.70;99.90;;;;;;5014633;28;20532;-50
2021/06/15 03:47:08;;;;;;;6.53;5.23;;;16.80;99.90;;;;;;5022618;28;21377;-51
2021/06/15 03:49:35;;;;;;;6.03;4.60;;;16.80;99.90;;;;;;5032948;28;20453;-50
2021/06/15 03:52:04;;;;;;;5.83;5.00;;;16.90;99.90;;;;;;5033741;28;20516;-51
2021/06/15 03:54:33;;;;;;;6.37;5.40;;;16.90;99.90;;;;;;5030260;28;20551;-51
2021/06/15 03:57:02;;;;;;;5.60;4.80;;;16.90;99.90;;;;;;5034000;28;20460;-52
2021/06/15 03:59:32;;;;;;;6.73;4.93;;;16.90;99.90;;;;;;5034422;28;20512;-51
2021/06/15 04:02:03;;;;;;;9.57;5.53;;;16.90;99.90;;;;;;5032183;28;20448;-51
2021/06/15 04:04:34;;;;;;;6.20;5.60;;;16.80;99.90;;;;;;5026768;28;20865;-51
2021/06/15 04:07:04;;;;;;;8.00;5.20;;;16.80;99.90;;;;;;5026708;28;20476;-51
2021/06/15 04:09:37;;;;;;;5.53;4.80;;;16.80;99.90;;;;;;5024471;28;20504;-51
2021/06/15 04:12:06;;;;;;;6.47;5.07;;;16.80;99.90;;;;;;5013849;28;20485;-51
2021/06/15 04:14:35;;;;;;;8.53;5.73;;;16.80;99.90;;;;;;5013963;28;20556;-51
2021/06/15 04:17:04;;;;;;;7.80;5.07;;;16.80;99.90;;;;;;5015488;28;20540;-51
2021/06/15 04:19:37;;;;;;;6.57;5.37;;;16.90;99.90;;;;;;5020412;28;20475;-50
2021/06/15 04:22:06;;;;;;;5.87;4.73;;;16.90;99.90;;;;;;5033554;28;20506;-50
2021/06/15 04:24:35;;;;;;;6.90;4.30;;;16.90;99.90;;;;;;5033560;28;20825;-50
2021/06/15 04:27:02;;;;;;;6.73;4.90;;;17.10;99.90;;;;;;5033832;28;20452;-51
2021/06/15 04:29:29;;;;;;;6.23;4.93;;;17.10;99.90;;;;;;5028132;28;20867;-51
2021/06/15 04:32:00;;;;;;;5.93;5.10;;;17.30;99.90;;;;;;5027375;28;20557;-51
2021/06/15 04:34:28;;;;;;;6.73;5.43;;;17.40;99.90;;;;;;5033506;28;20472;-51
2021/06/15 04:36:59;;;;;;;5.63;5.13;;;17.40;99.90;;;;;;5033421;28;20448;-51
2021/06/15 04:39:32;;;;;;;6.40;5.07;;;17.50;99.90;;;;;;5033645;28;20539;-51
2021/06/15 04:42:01;;;;;;;4.93;4.50;;;17.60;99.90;;;;;;5022415;28;20441;-51
2021/06/15 04:44:32;;;;;;;10.33;4.70;;;17.80;99.90;;;;;;5032924;28;20472;-51
2021/06/15 04:47:03;;;;;;;5.93;4.63;;;17.90;99.90;;;;;;5033353;28;20860;-51
2021/06/15 04:49:36;;;;;;;5.23;4.40;;;18.00;99.90;;;;;;5024728;28;20454;-52
2021/06/15 04:52:06;;;;;;;7.50;5.73;;;18.00;99.90;;;;;;5013279;28;20563;-51
2021/06/15 04:54:36;;;;;;;7.80;5.40;;;18.20;99.90;;;;;;5013299;28;20465;-51
2021/06/15 04:57:08;;;;;;;5.30;4.70;;;18.40;99.90;;;;;;5015608;28;20512;-51
2021/06/15 04:59:37;;;;;;;5.50;4.80;;;18.70;99.90;;;;;;5014080;28;20856;-52
2021/06/15 05:02:05;;;;;;;6.20;4.73;;;19.30;99.90;;;;;;5014011;28;20875;-52
2021/06/15 05:04:34;;;;;;;6.07;4.73;;;20.00;99.90;;;;;;5024727;28;20531;-52
2021/06/15 05:07:02;;;;;;;5.50;4.10;;;21.20;99.90;;;;;;5033044;28;20886;-52
2021/06/15 05:09:32;;;;;;;7.03;4.10;;;22.30;99.90;;;;;;5032914;28;20448;-52
2021/06/15 05:12:00;;;;;;;6.70;4.53;;;23.50;99.90;;;;;;5020132;28;20485;-52
2021/06/15 05:14:29;;;;;;;5.13;4.00;;;24.40;99.90;;;;;;5012862;28;20536;-52
2021/06/15 05:16:57;;;;;;;5.03;3.67;;;25.20;99.90;;;;;;5012693;28;20481;-52
2021/06/15 05:19:25;;;;;;;7.13;3.97;;;26.00;99.90;;;;;;5013608;28;20955;-51
2021/06/15 05:21:55;;;;;;;8.40;4.47;;;26.60;99.90;;;;;;5026128;28;20514;-51
2021/06/15 05:24:41;;;;;;;4.10;3.80;;;27.20;99.90;;;;;;5031564;28;20476;-52
2021/06/15 05:27:08;;;;;;;4.73;3.73;;;27.80;98.90;;;;;;5030413;28;20472;-52
2021/06/15 05:29:35;;;;;;;6.70;3.70;;;28.30;97.70;;;;;;5025868;28;20581;-51
2021/06/15 05:32:06;;;;;;;5.87;4.03;;;28.60;95.30;;;;;;5012519;28;20485;-52
2021/06/15 05:34:33;;;;;;;4.00;3.67;;;28.60;95.10;;;;;;5012692;28;20465;-53
2021/06/15 05:37:00;;;;;;;4.43;4.03;;;28.70;94.70;;;;;;5012599;28;20457;-52
2021/06/15 05:39:27;;;;;;;4.60;3.77;;;29.00;93.80;;;;;;5021409;28;20452;-53
2021/06/15 05:41:55;;;;;;;7.57;4.17;;;29.20;94.20;;;;;;5024322;28;20504;-51
2021/06/15 05:44:22;;;;;;;3.90;3.60;;;29.60;94.00;;;;;;5012593;28;20492;-52
2021/06/15 05:46:50;;;;;;;4.20;3.30;;;29.40;93.90;;;;;;5012552;28;20520;-53
2021/06/15 05:49:17;;;;;;;6.30;3.20;;;29.60;91.70;;;;;;5012343;28;20834;-52
2021/06/15 05:51:44;;;;;;;3.30;3.00;;;29.70;92.40;;;;;;5012011;28;20555;-53
2021/06/15 05:54:11;;;;;;;3.53;3.10;;;29.70;91.20;;;;;;5027864;28;20469;-52
2021/06/15 05:56:38;;;;;;;3.50;2.80;;;29.80;91.40;;;;;;5031834;28;20448;-53
2021/06/15 05:59:06;;;;;;;4.70;3.23;;;29.80;91.20;;;;;;5031969;28;20448;-52
2021/06/15 06:01:33;;;;;;;5.40;3.30;;;30.10;92.30;;;;;;5031709;28;21066;-52
2021/06/15 06:04:03;;;;;;;3.80;3.50;;;30.50;91.80;;;;;;5031761;28;20615;-53
2021/06/15 06:09:15;;;;;;;5.67;2.93;;;30.60;86.70;;;;;;5014366;28;20425;-51
2021/06/15 06:11:43;;;;;;;3.97;3.57;;;30.80;90.50;;;;;;5016437;28;20923;-52
2021/06/15 06:14:12;;;;;;;3.33;3.13;;;30.90;87.30;;;;;;5031473;28;20473;-52
2021/06/15 06:16:42;;;;;;;2.90;2.70;;;31.10;86.50;;;;;;5031715;28;20448;-52
2021/06/15 06:19:09;;;;;;;4.07;3.03;;;31.20;84.50;;;;;;5031939;28;20477;-52
2021/06/15 06:21:37;;;;;;;3.37;3.17;;;31.10;85.00;;;;;;5027217;28;20437;-52
2021/06/15 06:24:06;;;;;;;5.00;3.10;;;31.00;84.30;;;;;;5030395;28;20477;-51
2021/06/15 06:26:35;;;;;;;3.20;3.00;;;31.20;86.30;;;;;;5030715;28;20563;-52
2021/06/15 06:29:02;;;;;;;3.40;3.10;;;31.30;83.40;;;;;;5025535;28;20453;-52
2021/06/15 06:31:35;;;;;;;5.00;3.63;;;31.30;81.20;;;;;;5029846;28;20480;-52
2021/06/15 06:34:02;;;;;;;3.87;3.47;;;31.10;84.00;;;;;;5031566;28;20476;-53
2021/06/15 06:36:29;;;;;;;5.63;3.63;;;31.50;87.50;;;;;;5031509;28;20943;-52
2021/06/15 06:38:56;;;;;;;4.67;4.00;;;31.50;84.50;;;;;;5031490;28;20448;-53
2021/06/15 06:41:24;;;;;;;3.60;3.40;;;31.80;87.40;;;;;;5023029;28;20442;-53
2021/06/15 06:43:51;;;;;;;8.73;3.37;;;32.00;83.90;;;;;;5011443;28;20480;-53
2021/06/15 06:46:18;;;;;;;4.13;3.20;;;32.10;82.30;;;;;;5012153;28;20453;-53
2021/06/15 06:48:46;;;;;;;3.93;3.63;;;32.20;83.60;;;;;;5031515;28;20453;-53
2021/06/15 06:51:13;;;;;;;5.40;3.70;;;31.90;80.60;;;;;;5031299;28;20502;-52
2021/06/15 06:53:40;;;;;;;3.63;3.30;;;31.40;81.80;;;;;;5031147;28;20468;-52
2021/06/15 06:56:08;;;;;;;3.87;3.57;;;31.80;81.80;;;;;;5031294;28;20449;-53
2021/06/15 06:58:35;;;;;;;7.17;4.07;;;32.00;81.60;;;;;;5026702;28;20441;-52
2021/06/15 07:01:02;;;;;;;4.57;3.40;;;31.70;80.80;;;;;;5024725;28;20530;-53
2021/06/15 07:03:29;;;;;;;4.10;3.50;;;31.30;83.20;;;;;;5028484;28;20539;-53
2021/06/15 07:05:58;;;;;;;4.87;3.37;;;31.80;82.40;;;;;;5027054;28;20507;-53
2021/06/15 07:08:25;;;;;;;4.60;3.60;;;31.90;84.10;;;;;;5027438;28;20506;-52
2021/06/15 07:10:52;;;;;;;7.00;3.93;;;31.20;83.80;;;;;;5031038;28;20445;-52
2021/06/15 07:13:20;;;;;;;6.80;3.27;;;30.90;86.20;;;;;;5030522;28;20529;-53
2021/06/15 07:15:47;;;;;;;3.87;3.67;;;31.40;85.80;;;;;;5031231;28;20448;-53
2021/06/15 07:18:13;;;;;;;4.23;3.83;;;31.80;84.10;;;;;;5030688;28;20472;-53
2021/06/15 07:20:40;;;;;;;3.67;3.37;;;31.30;86.00;;;;;;5030824;28;20486;-53
2021/06/15 07:23:09;;;;;;;14.20;3.40;;;31.10;85.30;;;;;;5029759;28;20476;-53
2021/06/15 07:25:36;;;;;;;4.30;3.90;;;31.90;84.00;;;;;;5030500;28;20528;-53
2021/06/15 07:28:04;;;;;;;3.87;3.57;;;32.30;77.30;;;;;;5030913;28;20950;-52
2021/06/15 07:30:31;;;;;;;3.50;2.90;;;32.20;78.30;;;;;;5031191;28;20465;-52
2021/06/15 07:32:58;;;;;;;3.77;3.47;;;32.50;80.00;;;;;;5030426;28;20488;-52
2021/06/15 07:35:26;;;;;;;4.33;3.30;;;32.30;76.30;;;;;;5030576;28;20445;-51
2021/06/15 07:37:53;;;;;;;4.23;3.20;;;32.60;80.80;;;;;;5030586;28;20457;-51
2021/06/15 07:40:24;;;;;;;4.20;3.80;;;33.00;81.10;;;;;;5030165;28;20449;-53
2021/06/15 07:42:51;;;;;;;4.00;3.43;;;33.10;77.40;;;;;;5023261;28;20469;-53
2021/06/15 07:45:18;;;;;;;4.00;3.60;;;33.00;77.90;;;;;;5020863;28;20449;-53
2021/06/15 07:47:45;;;;;;;5.70;4.13;;;32.30;77.20;;;;;;5033964;28;20465;-53
2021/06/15 07:50:13;;;;;;;4.60;3.90;;;32.20;74.70;;;;;;5034128;28;20836;-54
2021/06/15 07:52:41;;;;;;;5.05;3.97;;;31.40;78.10;;;;;;5028853;28;21124;-53
2021/06/15 07:55:09;;;;;;;5.23;4.73;;;31.70;79.50;;;;;;5031357;28;20671;-53
2021/06/15 07:57:37;;;;;;;6.10;3.60;;;30.80;81.40;;;;;;5017973;28;20454;-52
2021/06/15 08:00:06;;;;;;;3.97;3.57;;;30.90;85.30;;;;;;5032093;28;20445;-53
2021/06/15 08:02:33;;;;;;;4.00;3.50;;;31.70;85.10;;;;;;5033408;28;21011;-53
2021/06/15 08:05:00;;;;;;;4.70;3.90;;;31.80;82.00;;;;;;5047071;22;21302;-57
2021/06/15 08:07:27;;;;;;;3.67;3.37;;;32.40;78.80;;;;;;5033106;28;20912;-57
2021/06/15 08:09:55;;;;;;;3.37;3.17;;;32.60;80.90;;;;;;5015266;28;20565;-57
2021/06/15 08:12:23;;;;;;;3.70;3.27;;;33.00;73.80;;;;;;5025348;28;21196;-58
2021/06/15 08:14:51;;;;;;;3.83;3.40;;;33.30;74.60;;;;;;5018647;28;20465;-57
2021/06/15 08:17:18;;;;;;;4.17;3.57;;;33.60;76.10;;;;;;5013572;28;20952;-57
2021/06/15 08:19:45;;;;;;;3.17;3.00;;;33.10;75.60;;;;;;5012055;28;20505;-57
2021/06/15 08:22:12;;;;;;;5.80;3.30;;;33.40;71.60;;;;;;4997422;28;20503;-58
2021/06/15 08:24:39;;;;;;;3.87;3.57;;;33.30;77.80;;;;;;5010790;28;20537;-58
2021/06/15 08:27:06;;;;;;;3.87;3.57;;;33.70;75.50;;;;;;5013900;28;20508;-58
2021/06/15 08:29:33;;;;;;;3.90;3.60;;;33.60;77.70;;;;;;5013804;28;20936;-58
2021/06/15 08:32:02;;;;;;;3.20;2.90;;;33.10;80.10;;;;;;5013375;28;20871;-58
2021/06/15 08:34:29;;;;;;;3.77;3.47;;;32.60;79.60;;;;;;5013187;28;20476;-57
2021/06/15 08:36:56;;;;;;;6.23;3.37;;;33.20;75.40;;;;;;5013770;28;20453;-58
2021/06/15 08:39:22;;;;;;;5.17;4.67;;;33.00;79.40;;;;;;5013642;28;20944;-57
2021/06/15 08:41:49;;;;;;;6.13;4.57;;;32.80;80.70;;;;;;5004865;28;20497;-62
2021/06/15 08:44:16;;;;;;;4.80;4.40;;;31.60;85.70;;;;;;4993905;28;20528;-58
2021/06/15 08:46:45;;;;;;;5.07;3.80;;;30.60;85.60;;;;;;4993682;28;20458;-58
2021/06/15 08:49:13;;;;;;;3.97;3.60;;;31.10;84.20;;;;;;5003747;28;21144;-57
2021/06/15 08:51:42;;;;;;;4.73;4.20;;;31.30;77.10;;;;;;4994601;28;20450;-58
2021/06/15 08:54:15;;;;;;;9.53;5.63;;;32.10;79.40;;;;;;5001056;28;20474;-57
2021/06/15 08:56:43;;;;;;;7.50;4.37;;;32.90;84.90;;;;;;5012923;28;20491;-58
2021/06/15 08:59:21;;;;;;;5.17;4.63;;;32.90;84.90;;;;;;5013028;28;20453;-58
2021/06/15 09:01:50;;;;;;;5.30;4.80;;;32.90;86.00;;;;;;5012874;28;21005;-58
2021/06/15 09:04:18;;;;;;;4.60;4.30;;;32.90;84.80;;;;;;4992641;28;20502;-58
2021/06/15 09:06:46;;;;;;;7.67;4.87;;;33.10;85.50;;;;;;4994805;28;20477;-58
2021/06/15 09:09:13;;;;;;;5.07;4.70;;;33.20;78.00;;;;;;5012855;28;20898;-58
2021/06/15 09:11:52;;;;;;;6.20;5.00;;;33.30;75.70;;;;;;5010618;28;20516;-58
2021/06/15 09:14:37;;;;;;;6.07;5.53;;;32.60;86.00;;;;;;5012117;28;20469;-57
2021/06/15 09:17:04;;;;;;;6.90;5.90;;;30.70;89.40;;;;;;5013040;28;20466;-59
2021/06/15 09:19:38;;;;;;;7.23;5.60;;;29.50;93.40;;;;;;5012877;28;20445;-58
2021/06/15 09:22:06;;;;;;;6.23;5.60;;;29.40;91.80;;;;;;5012459;28;20511;-58
2021/06/15 09:24:44;;;;;;;7.13;5.70;;;29.70;93.80;;;;;;5012100;28;20548;-57
2021/06/15 09:27:11;;;;;;;8.03;5.63;;;29.90;94.40;;;;;;5011918;28;20454;-58
2021/06/15 09:29:43;;;;;;;6.00;5.50;;;30.50;92.50;;;;;;4995759;28;20462;-58
2021/06/15 09:32:12;;;;;;;7.07;5.93;;;30.80;92.20;;;;;;4992683;28;20482;-59
2021/06/15 09:34:49;;;;;;;12.23;6.20;;;31.30;92.00;;;;;;5006154;28;20474;-59
2021/06/15 09:37:16;;;;;;;7.47;5.90;;;31.50;91.10;;;;;;5011897;28;20878;-59
2021/06/15 09:39:44;;;;;;;7.70;5.77;;;31.70;92.30;;;;;;5012384;28;20548;-59
2021/06/15 09:42:12;;;;;;;7.83;5.77;;;31.50;91.00;;;;;;5010372;28;20932;-57
2021/06/15 09:44:39;;;;;;;5.87;5.40;;;31.60;92.00;;;;;;4992612;28;20482;-59
2021/06/15 09:47:08;;;;;;;11.20;5.90;;;32.30;91.00;;;;;;4992551;28;20466;-59
2021/06/15 09:49:36;;;;;;;5.60;5.07;;;32.20;90.50;;;;;;4992451;28;20509;-59
2021/06/15 09:52:13;;;;;;;6.13;5.63;;;32.30;90.30;;;;;;4992498;28;20478;-59
2021/06/15 09:54:42;;;;;;;5.93;5.43;;;31.60;90.20;;;;;;5003130;28;20473;-58
2021/06/15 09:57:12;;;;;;;6.00;5.40;;;31.00;91.00;;;;;;5001649;28;20450;-58
2021/06/15 10:00:10;;;;;;;8.13;6.20;;;31.40;90.30;;;;;;5005735;28;20540;-59
2021/06/15 10:02:47;;;;;;;10.40;6.20;;;32.10;89.70;;;;;;4994563;28;20438;-59
2021/06/15 10:05:35;;;;;;;10.00;6.07;;;32.50;88.20;;;;;;5011563;28;20572;-59
2021/06/15 10:08:06;;;;;;;7.27;6.57;;;31.60;91.20;;;;;;5007130;28;20521;-59
2021/06/15 10:10:35;;;;;;;8.60;6.30;;;31.60;92.40;;;;;;5005462;28;20455;-58
2021/06/15 10:13:04;;;;;;;15.33;6.87;;;31.10;92.00;;;;;;4992024;28;20479;-59
2021/06/15 10:15:31;;;;;;;8.57;6.80;;;31.60;91.30;;;;;;4992279;28;20487;-59
2021/06/15 10:17:59;;;;;;;9.67;7.20;;;32.00;91.50;;;;;;4997520;28;20943;-60
2021/06/15 10:20:28;;;;;;;9.00;6.63;;;31.70;92.40;;;;;;5011813;28;20939;-59
2021/06/15 10:22:57;;;;;;;8.50;6.00;;;31.40;92.90;;;;;;5011341;28;21215;-59
2021/06/15 10:25:27;;;;;;;8.47;6.47;;;31.60;92.10;;;;;;5011034;28;20503;-59
2021/06/15 10:27:55;;;;;;;9.50;6.87;;;32.20;90.80;;;;;;5011961;28;20449;-59
2021/06/15 10:30:30;;;;;;;7.03;6.33;;;31.70;92.10;;;;;;5008036;28;20439;-59
2021/06/15 10:32:59;;;;;;;7.05;5.78;;;30.60;93.60;;;;;;4989982;28;20538;-59
2021/06/15 10:35:33;;;;;;;5.50;5.00;;;30.90;93.70;;;;;;4991640;28;20207;-58
2021/06/15 10:38:01;;;;;;;6.10;5.60;;;31.50;90.30;;;;;;4992449;28;20513;-59
2021/06/15 10:40:37;;;;;;;5.23;4.83;;;30.90;92.10;;;;;;4992137;28;20509;-59
2021/06/15 10:43:16;;;;;;;5.37;4.90;;;30.50;91.00;;;;;;4991733;28;20509;-58
2021/06/15 10:45:44;;;;;;;4.83;4.43;;;31.20;89.00;;;;;;4991831;28;20479;-58
2021/06/15 10:48:40;;;;;;;3.87;3.57;;;30.20;89.30;;;;;;4992098;28;20537;-58
2021/06/15 10:51:36;;;;;;;4.67;4.23;;;29.60;88.70;;;;;;4991874;28;20538;-58
2021/06/15 10:54:25;;;;;;;3.93;3.70;;;30.00;90.80;;;;;;4991603;28;20489;-58
2021/06/15 10:57:15;;;;;;;4.00;3.60;;;29.60;91.20;;;;;;4991621;28;20894;-58
2021/06/15 11:00:01;;;;;;;5.63;4.50;;;29.60;86.50;;;;;;4991733;28;20998;-58
2021/06/15 11:02:31;;;;;;;4.27;3.97;;;29.30;90.60;;;;;;4991378;28;20838;-57
2021/06/15 11:04:58;;;;;;;4.67;2.83;;;29.30;91.70;;;;;;4995340;28;20523;-58
2021/06/15 11:07:27;;;;;;;3.60;3.40;;;29.20;85.00;;;;;;5010477;28;20508;-57
2021/06/15 11:09:54;;;;;;;3.63;3.33;;;29.10;85.00;;;;;;4991618;28;20451;-57
2021/06/15 11:12:23;;;;;;;4.80;3.30;;;29.10;86.90;;;;;;4991315;28;20446;-56
2021/06/15 11:15:20;;;;;;;3.70;3.37;;;28.90;88.10;;;;;;4991398;28;20525;-58
2021/06/15 11:17:52;;;;;;;3.40;3.10;;;29.00;83.00;;;;;;4995615;28;20446;-57
2021/06/15 11:20:28;;;;;;;3.80;3.40;;;28.90;90.00;;;;;;5001869;28;20496;-57
2021/06/15 11:23:13;;;;;;;5.63;3.50;;;28.50;83.60;;;;;;5013957;28;20449;-56
2021/06/15 11:25:51;;;;;;;3.70;3.40;;;28.40;88.60;;;;;;5014884;28;20975;-57
2021/06/15 11:28:39;;;;;;;3.47;3.17;;;28.90;88.80;;;;;;5014750;28;20495;-58
2021/06/15 11:31:36;;;;;;;3.90;3.43;;;28.50;86.00;;;;;;5014676;28;20449;-57
2021/06/15 11:34:20;;;;;;;3.30;3.00;;;28.20;88.00;;;;;;5014446;28;20485;-57
2021/06/15 11:36:56;;;;;;;4.33;3.70;;;27.90;90.20;;;;;;5014666;28;20939;-56
2021/06/15 11:39:36;;;;;;;4.10;3.73;;;28.10;91.40;;;;;;5014682;28;20520;-57
2021/06/15 11:42:22;;;;;;;5.03;4.20;;;28.20;90.50;;;;;;5014178;28;20540;-57
2021/06/15 11:45:08;;;;;;;3.90;3.50;;;27.90;90.40;;;;;;5014704;28;20457;-57
2021/06/15 11:47:55;;;;;;;4.10;3.70;;;27.70;93.30;;;;;;5013225;28;20457;-57
2021/06/15 11:50:26;;;;;;;5.13;3.33;;;27.80;90.70;;;;;;5013301;28;20458;-57
2021/06/15 11:52:57;;;;;;;3.70;3.40;;;28.10;91.50;;;;;;5009891;28;20477;-57
2021/06/15 11:55:26;;;;;;;3.90;3.70;;;28.10;93.00;;;;;;5014477;28;20449;-57
2021/06/15 11:58:11;;;;;;;3.77;3.47;;;28.10;92.30;;;;;;5014252;28;20456;-57
2021/06/15 12:00:41;;;;;;;3.47;3.27;;;28.10;91.00;;;;;;4994656;28;20533;-56
2021/06/15 12:03:11;;;;;;;4.13;3.10;;;28.30;92.80;;;;;;5010377;28;20453;-57
2021/06/15 12:05:39;;;;;;;3.60;3.30;;;28.60;89.60;;;;;;5014137;28;20944;-57
2021/06/15 12:08:07;;;;;;;3.90;3.60;;;28.80;87.20;;;;;;5013632;28;20458;-57
2021/06/15 12:10:34;;;;;;;5.87;3.23;;;28.70;91.30;;;;;;5013115;28;20449;-57
2021/06/15 12:13:08;;;;;;;3.50;2.83;;;28.20;87.70;;;;;;5013405;28;20844;-58
2021/06/15 12:15:42;;;;;;;2.37;2.27;;;28.10;86.10;;;;;;5013679;28;20449;-57
2021/06/15 12:18:14;;;;;;;4.37;2.60;;;28.20;86.50;;;;;;5013297;28;20449;-57
2021/06/15 12:20:42;;;;;;;2.53;2.40;;;28.20;87.80;;;;;;5014019;28;20450;-57
2021/06/15 12:23:24;;;;;;;2.43;2.23;;;28.20;85.00;;;;;;5013487;28;20449;-57
2021/06/15 12:25:51;;;;;;;3.13;2.93;;;28.00;87.50;;;;;;5013610;28;20904;-57
2021/06/15 12:28:21;;;;;;;3.20;2.90;;;28.10;84.90;;;;;;5013612;28;20495;-57
2021/06/15 12:31:02;;;;;;;3.50;3.20;;;28.00;86.00;;;;;;5013139;28;20504;-57
2021/06/15 12:33:29;;;;;;;5.50;2.87;;;28.00;88.00;;;;;;5013432;28;20516;-57
2021/06/15 12:35:59;;;;;;;4.20;2.40;;;28.10;83.80;;;;;;5013627;28;20449;-58
2021/06/15 12:38:26;;;;;;;2.50;2.40;;;28.30;85.00;;;;;;5014123;28;20536;-57
2021/06/15 12:40:54;;;;;;;2.97;2.77;;;28.60;84.60;;;;;;5007746;28;20542;-57
2021/06/15 12:43:25;;;;;;;2.63;2.53;;;28.80;80.40;;;;;;4993982;28;20466;-57
2021/06/15 12:46:08;;;;;;;7.70;2.80;;;29.00;80.60;;;;;;5004848;28;20481;-58
2021/06/15 12:48:44;;;;;;;3.53;2.47;;;29.10;79.20;;;;;;5013488;28;20534;-57
2021/06/15 12:51:12;;;;;;;2.43;2.33;;;29.30;81.60;;;;;;5013742;28;20552;-57
2021/06/15 12:53:40;;;;;;;2.70;2.50;;;29.30;78.70;;;;;;5012928;28;20497;-57
2021/06/15 12:56:18;;;;;;;3.53;3.07;;;29.20;84.30;;;;;;5013363;28;20498;-57
2021/06/15 12:58:47;;;;;;;3.60;3.37;;;29.20;87.60;;;;;;5013245;28;20899;-57
2021/06/15 13:01:21;;;;;;;3.93;3.10;;;29.30;81.30;;;;;;5013430;28;20453;-58
2021/06/15 13:03:52;;;;;;;2.93;2.57;;;29.00;88.90;;;;;;5013271;28;20481;-57
2021/06/15 13:06:21;;;;;;;7.63;3.40;;;28.90;84.10;;;;;;4999027;28;20461;-57